Time;durP1;ratioP1;P1;durP2;ratioP2;P2;SDS_P1;SDS_P2;PMS_P1;PMS_P2;Temp;Humidity;BMP_temperature;BMP_pressure;BME280_temperature;BME280_humidity;BME280_pressure;Samples;Min_cycle;Max_cycle;Signal;HPM_P1;HPM_P2
2022/05/20 00:01:49;;;;;;;10.55;8.73;;;14.40;99.90;;;;;;4982690;28;20041;-80
2022/05/20 00:04:14;;;;;;;10.85;8.77;;;14.40;99.90;;;;;;4981951;28;20128;-79
2022/05/20 00:06:40;;;;;;;15.85;9.18;;;14.40;99.90;;;;;;4984105;28;20263;-79
2022/05/20 00:09:06;;;;;;;12.82;9.30;;;14.40;99.90;;;;;;4979934;28;20720;-79
2022/05/20 00:11:32;;;;;;;12.13;9.68;;;14.40;99.90;;;;;;4966987;28;20056;-79
2022/05/20 00:13:58;;;;;;;10.60;8.90;;;14.40;99.90;;;;;;4987515;28;20052;-79
2022/05/20 00:16:23;;;;;;;12.90;9.10;;;14.40;99.90;;;;;;4999370;28;20046;-79
2022/05/20 00:18:49;;;;;;;15.90;10.43;;;14.40;99.90;;;;;;4981831;28;20042;-79
2022/05/20 00:21:15;;;;;;;12.70;10.13;;;14.40;99.90;;;;;;4979708;28;20045;-79
2022/05/20 00:23:41;;;;;;;13.10;8.80;;;14.40;99.90;;;;;;4981594;28;20061;-80
2022/05/20 00:26:06;;;;;;;13.23;8.60;;;14.30;99.90;;;;;;4982824;28;20054;-80
2022/05/20 00:28:33;;;;;;;15.05;8.82;;;14.40;99.90;;;;;;4981533;28;20544;-79
2022/05/20 00:31:09;;;;;;;12.50;9.18;;;14.30;99.90;;;;;;4983468;28;20755;-79
2022/05/20 00:33:37;;;;;;;10.60;8.02;;;14.40;99.90;;;;;;4982113;28;20038;-79
2022/05/20 00:36:04;;;;;;;16.00;9.10;;;14.30;99.90;;;;;;4999564;28;20045;-79
2022/05/20 00:38:30;;;;;;;14.70;8.73;;;14.30;99.90;;;;;;4961918;28;20161;-80
2022/05/20 00:40:58;;;;;;;12.07;8.65;;;14.30;99.90;;;;;;4983411;28;20065;-79
2022/05/20 00:43:29;;;;;;;10.55;7.45;;;14.30;99.90;;;;;;4979003;28;20125;-78
2022/05/20 00:45:58;;;;;;;12.30;7.50;;;14.30;99.90;;;;;;4977467;28;20679;-79
2022/05/20 00:48:23;;;;;;;11.98;7.78;;;14.30;99.90;;;;;;4966700;28;20503;-79
2022/05/20 00:51:01;;;;;;;10.07;6.93;;;14.30;99.90;;;;;;4982215;28;20042;-79
2022/05/20 00:53:33;;;;;;;12.50;7.18;;;14.30;99.90;;;;;;4981574;28;20038;-80
2022/05/20 00:55:59;;;;;;;10.02;7.00;;;14.30;99.90;;;;;;4966437;28;20123;-79
2022/05/20 00:58:26;;;;;;;10.70;6.18;;;14.30;99.90;;;;;;4983106;28;20077;-80
2022/05/20 01:00:54;;;;;;;12.57;7.50;;;14.30;99.90;;;;;;4982105;28;20153;-79
2022/05/20 01:03:24;;;;;;;10.32;6.78;;;14.30;99.90;;;;;;4980922;28;20042;-78
2022/05/20 01:05:53;;;;;;;10.98;6.82;;;14.20;99.90;;;;;;4995289;28;20072;-80
2022/05/20 01:08:25;;;;;;;12.48;7.60;;;14.10;99.90;;;;;;4988033;28;20035;-79
2022/05/20 01:10:52;;;;;;;11.68;7.30;;;14.10;99.90;;;;;;4964584;28;20034;-79
2022/05/20 01:13:18;;;;;;;13.27;7.90;;;14.10;99.90;;;;;;4999785;28;20056;-80
2022/05/20 01:15:45;;;;;;;9.27;6.22;;;14.10;99.90;;;;;;4982758;28;20495;-80
2022/05/20 01:18:13;;;;;;;10.70;7.45;;;14.10;99.90;;;;;;4968016;28;20057;-80
2022/05/20 01:20:49;;;;;;;13.45;6.88;;;14.20;99.90;;;;;;4983663;28;20060;-80
2022/05/20 01:23:20;;;;;;;11.02;7.70;;;14.20;99.90;;;;;;4977109;28;20095;-79
2022/05/20 01:25:50;;;;;;;9.98;7.80;;;14.20;99.90;;;;;;4983434;28;20034;-80
2022/05/20 01:28:18;;;;;;;12.02;6.63;;;14.20;99.90;;;;;;4963749;28;20441;-79
2022/05/20 01:30:51;;;;;;;10.80;7.07;;;14.20;99.90;;;;;;4985646;28;20055;-79
2022/05/20 01:33:27;;;;;;;11.55;7.95;;;14.20;99.90;;;;;;4980248;28;20030;-79
2022/05/20 01:35:53;;;;;;;9.77;7.40;;;14.20;99.90;;;;;;4985047;28;20046;-79
2022/05/20 01:38:19;;;;;;;12.80;8.38;;;14.20;99.90;;;;;;4980975;28;20045;-79
2022/05/20 01:40:55;;;;;;;9.57;7.65;;;14.20;99.90;;;;;;4979359;28;20050;-80
2022/05/20 01:43:31;;;;;;;11.02;7.75;;;14.20;99.90;;;;;;4982110;28;20054;-80
2022/05/20 01:46:14;;;;;;;12.02;7.90;;;14.20;99.90;;;;;;4983977;28;20054;-78
2022/05/20 01:49:16;;;;;;;9.25;7.97;;;14.30;99.90;;;;;;4982439;28;20037;-79
2022/05/20 01:52:02;;;;;;;11.77;8.70;;;14.30;99.90;;;;;;4982688;28;20045;-79
2022/05/20 01:54:47;;;;;;;9.75;7.55;;;14.30;99.90;;;;;;4979706;28;20526;-79
2022/05/20 01:57:36;;;;;;;10.97;8.00;;;14.30;99.90;;;;;;4984391;28;20061;-79
2022/05/20 02:00:25;;;;;;;11.10;7.75;;;14.30;99.90;;;;;;4961134;28;20129;-80
2022/05/20 02:03:24;;;;;;;9.88;8.50;;;14.30;99.90;;;;;;4981432;28;20092;-79
2022/05/20 02:05:53;;;;;;;13.27;8.45;;;14.20;99.90;;;;;;4981495;28;20096;-80
2022/05/20 02:08:26;;;;;;;10.57;8.15;;;14.20;99.90;;;;;;4980353;28;21035;-79
2022/05/20 02:11:01;;;;;;;14.35;8.35;;;14.20;99.90;;;;;;4978330;28;20030;-79
2022/05/20 02:13:30;;;;;;;9.20;8.30;;;14.20;99.90;;;;;;4979922;28;20061;-78
2022/05/20 02:16:05;;;;;;;13.25;8.73;;;14.20;99.90;;;;;;4979351;28;20336;-79
2022/05/20 02:18:38;;;;;;;11.63;8.70;;;14.10;99.90;;;;;;4982002;28;20046;-79
2022/05/20 02:21:09;;;;;;;11.70;8.13;;;14.10;99.90;;;;;;4983719;28;20046;-78
2022/05/20 02:23:41;;;;;;;13.38;8.63;;;14.10;99.90;;;;;;4984282;28;20053;-79
2022/05/20 02:26:12;;;;;;;14.15;8.45;;;14.00;99.90;;;;;;4982218;28;20073;-79
2022/05/20 02:28:41;;;;;;;10.20;7.88;;;14.10;99.90;;;;;;4981764;28;20042;-79
2022/05/20 02:31:15;;;;;;;15.45;9.25;;;14.00;99.90;;;;;;4980890;28;20076;-79
2022/05/20 02:33:41;;;;;;;10.15;8.50;;;14.10;99.90;;;;;;4981935;28;20073;-81
2022/05/20 02:36:28;;;;;;;11.93;9.48;;;14.00;99.90;;;;;;4979404;28;20810;-79
2022/05/20 02:38:54;;;;;;;12.80;8.15;;;14.00;99.90;;;;;;4981802;28;20038;-80
2022/05/20 02:41:19;;;;;;;9.55;8.40;;;14.00;99.90;;;;;;4981155;28;20072;-79
2022/05/20 02:43:45;;;;;;;9.57;7.70;;;14.00;99.90;;;;;;4980621;28;20064;-80
2022/05/20 02:46:12;;;;;;;12.43;8.73;;;14.00;99.90;;;;;;4980553;28;20049;-79
2022/05/20 02:48:37;;;;;;;13.60;9.10;;;13.90;99.90;;;;;;4978544;28;20046;-78
2022/05/20 02:51:04;;;;;;;11.27;8.20;;;14.00;99.90;;;;;;4983322;28;20050;-79
2022/05/20 02:53:29;;;;;;;9.57;8.60;;;14.00;99.90;;;;;;4999042;28;20046;-79
2022/05/20 02:55:56;;;;;;;14.82;8.23;;;14.00;99.90;;;;;;4982595;28;20045;-78
2022/05/20 03:04:11;;;;;;;12.07;7.78;;;13.90;99.90;;;;;;4979710;28;20104;-80
2022/05/20 03:06:39;;;;;;;11.10;8.10;;;13.90;99.90;;;;;;4981005;28;20069;-78
2022/05/20 03:09:06;;;;;;;9.55;7.93;;;13.80;99.90;;;;;;4979835;28;20065;-78
2022/05/20 03:11:33;;;;;;;11.63;10.30;;;13.90;99.90;;;;;;4966070;28;20746;-79
2022/05/20 03:14:04;;;;;;;12.80;10.85;;;13.80;99.90;;;;;;4981924;28;20049;-78
2022/05/20 03:16:31;;;;;;;16.75;11.60;;;13.90;99.90;;;;;;4981122;28;20038;-78
2022/05/20 03:18:57;;;;;;;12.30;11.07;;;13.90;99.90;;;;;;4981150;28;20069;-79
2022/05/20 03:21:23;;;;;;;15.00;12.27;;;13.90;99.90;;;;;;4979689;28;20157;-79
2022/05/20 03:23:48;;;;;;;14.10;10.98;;;13.90;99.90;;;;;;4981275;28;20049;-78
2022/05/20 03:26:15;;;;;;;12.95;10.93;;;13.90;99.90;;;;;;4979540;28;20042;-79
2022/05/20 03:28:45;;;;;;;13.25;10.90;;;13.90;99.90;;;;;;4964074;28;20047;-79
2022/05/20 03:31:12;;;;;;;13.75;10.73;;;13.90;99.90;;;;;;4979583;28;20070;-79
2022/05/20 03:33:38;;;;;;;12.30;10.95;;;13.90;99.90;;;;;;4983092;28;20046;-79
2022/05/20 03:36:04;;;;;;;12.57;11.10;;;13.90;99.90;;;;;;4983088;28;20046;-79
2022/05/20 03:38:30;;;;;;;11.82;10.57;;;13.90;99.90;;;;;;4968512;28;20046;-78
2022/05/20 03:40:56;;;;;;;18.88;12.50;;;13.90;99.90;;;;;;4985178;28;20096;-79
2022/05/20 03:43:23;;;;;;;13.50;11.25;;;13.90;99.90;;;;;;4985146;28;20053;-78
2022/05/20 03:45:50;;;;;;;12.68;11.23;;;13.90;99.90;;;;;;4982898;28;20050;-78
2022/05/20 03:48:16;;;;;;;13.38;10.52;;;13.90;99.90;;;;;;4987229;28;20056;-79
2022/05/20 03:50:41;;;;;;;12.65;10.05;;;13.80;99.90;;;;;;4982449;28;20489;-80
2022/05/20 03:53:07;;;;;;;13.75;11.10;;;13.80;99.90;;;;;;4966760;28;20077;-78
2022/05/20 03:55:32;;;;;;;12.35;10.93;;;13.80;99.90;;;;;;4983688;28;20042;-78
2022/05/20 03:57:58;;;;;;;12.23;10.90;;;13.80;99.90;;;;;;4987898;28;20068;-78
2022/05/20 04:00:24;;;;;;;12.63;10.20;;;13.70;99.90;;;;;;4994552;28;20037;-79
2022/05/20 04:02:49;;;;;;;11.23;10.00;;;13.70;99.90;;;;;;5014539;28;20469;-79
2022/05/20 04:05:15;;;;;;;13.93;10.15;;;13.70;99.90;;;;;;4998966;28;20038;-79
2022/05/20 04:07:40;;;;;;;10.50;9.32;;;13.70;99.90;;;;;;5002449;28;20042;-79
2022/05/20 04:10:07;;;;;;;11.02;9.82;;;13.70;99.90;;;;;;4986971;28;20045;-79
2022/05/20 04:12:42;;;;;;;11.05;9.90;;;13.80;99.90;;;;;;4983678;28;20088;-80
2022/05/20 04:15:10;;;;;;;11.88;9.00;;;13.90;99.90;;;;;;4984881;28;20046;-78
2022/05/20 04:17:36;;;;;;;10.63;8.32;;;14.00;99.90;;;;;;4981159;28;20109;-78
2022/05/20 04:20:03;;;;;;;10.23;8.07;;;14.00;99.90;;;;;;4970443;28;20046;-78
2022/05/20 04:22:35;;;;;;;12.30;8.60;;;14.10;99.90;;;;;;4985175;28;20079;-79
2022/05/20 04:25:00;;;;;;;9.13;7.28;;;14.20;99.90;;;;;;4979828;28;20153;-79
2022/05/20 04:27:29;;;;;;;11.90;6.80;;;14.30;99.90;;;;;;4983143;28;20046;-78
2022/05/20 04:29:56;;;;;;;9.82;7.03;;;14.40;99.90;;;;;;4984749;28;20088;-79
2022/05/20 04:32:22;;;;;;;10.20;6.68;;;14.40;99.90;;;;;;4984005;28;20048;-80
2022/05/20 04:34:48;;;;;;;7.90;7.10;;;14.40;99.90;;;;;;4983480;28;20416;-79
2022/05/20 04:37:14;;;;;;;9.90;6.68;;;14.40;99.90;;;;;;4980798;28;20061;-79
2022/05/20 04:39:40;;;;;;;10.23;8.30;;;14.40;99.90;;;;;;4981798;28;20060;-79
2022/05/20 04:47:35;;;;;;;14.10;8.35;;;14.30;99.90;;;;;;4984446;28;20112;-78
2022/05/20 04:50:01;;;;;;;14.32;8.75;;;14.20;99.90;;;;;;4980351;28;20906;-78
2022/05/20 04:52:27;;;;;;;11.50;8.57;;;14.20;99.90;;;;;;4983330;28;20089;-81
2022/05/20 04:54:53;;;;;;;10.57;9.13;;;14.10;99.90;;;;;;4988990;28;20070;-81
2022/05/20 04:57:36;;;;;;;12.20;9.75;;;14.20;99.90;;;;;;4987966;28;20057;-81
2022/05/20 05:00:21;;;;;;;13.05;8.55;;;14.20;99.90;;;;;;5001548;28;20504;-80
2022/05/20 05:02:47;;;;;;;14.35;9.38;;;14.30;99.90;;;;;;4991254;28;20120;-78
2022/05/20 05:05:15;;;;;;;17.55;8.75;;;14.40;99.90;;;;;;4982720;28;20092;-78
2022/05/20 05:07:47;;;;;;;10.10;9.07;;;14.60;99.90;;;;;;4982831;28;20049;-81
2022/05/20 05:10:15;;;;;;;9.98;8.20;;;14.80;99.90;;;;;;4986230;28;20042;-79
2022/05/20 05:12:41;;;;;;;9.48;7.00;;;15.30;99.90;;;;;;4975246;28;20044;-78
2022/05/20 05:15:07;;;;;;;9.18;6.22;;;16.20;99.90;;;;;;4985254;28;20041;-79
2022/05/20 05:20:26;;;;;;;7.70;5.32;;;18.50;99.90;;;;;;4985581;28;20493;-77
2022/05/20 05:23:01;;;;;;;6.50;4.65;;;20.00;99.90;;;;;;4986898;28;20176;-77
2022/05/20 05:25:36;;;;;;;9.88;5.60;;;21.00;99.90;;;;;;4984546;28;20049;-79
2022/05/20 05:28:03;;;;;;;8.32;5.68;;;21.70;99.90;;;;;;4983529;28;20751;-78
2022/05/20 05:30:30;;;;;;;9.13;4.85;;;21.90;99.90;;;;;;4983058;28;20100;-79
2022/05/20 05:32:56;;;;;;;8.90;5.30;;;21.80;99.90;;;;;;4981618;28;20045;-79
2022/05/20 05:35:27;;;;;;;8.50;5.60;;;21.50;99.90;;;;;;4985787;28;20026;-80
2022/05/20 05:37:53;;;;;;;9.55;5.13;;;21.40;99.90;;;;;;4982914;28;20531;-80
2022/05/20 05:40:24;;;;;;;8.48;4.85;;;21.30;99.90;;;;;;4983247;28;20499;-79
2022/05/20 05:42:51;;;;;;;6.45;4.45;;;21.30;99.90;;;;;;4986502;28;20073;-80
2022/05/20 05:45:22;;;;;;;10.32;4.28;;;21.20;99.90;;;;;;4981800;28;20053;-81
2022/05/20 05:47:53;;;;;;;6.28;4.43;;;21.10;99.90;;;;;;4982420;28;20080;-80
2022/05/20 05:50:18;;;;;;;13.88;4.50;;;21.00;99.90;;;;;;4986694;28;20033;-79
2022/05/20 05:52:44;;;;;;;8.23;4.00;;;20.90;99.90;;;;;;4987691;28;20100;-79
2022/05/20 05:55:09;;;;;;;10.88;4.72;;;20.80;99.90;;;;;;4990454;28;20084;-79
2022/05/20 05:57:35;;;;;;;7.18;3.80;;;20.90;99.90;;;;;;5001463;28;20048;-79
2022/05/20 06:00:01;;;;;;;8.30;3.75;;;20.80;99.90;;;;;;5000376;28;20042;-81
2022/05/20 06:02:27;;;;;;;7.25;4.32;;;21.00;99.90;;;;;;4988586;28;20148;-82
2022/05/20 06:04:52;;;;;;;6.15;4.38;;;20.90;99.90;;;;;;4994973;28;20038;-81
2022/05/20 06:07:24;;;;;;;11.32;4.90;;;20.90;99.90;;;;;;4991992;28;20042;-82
2022/05/20 06:09:50;;;;;;;8.75;5.07;;;20.90;99.90;;;;;;4986233;28;20044;-80
2022/05/20 06:12:15;;;;;;;10.50;4.03;;;20.80;99.90;;;;;;4986062;28;20030;-80
2022/05/20 06:14:41;;;;;;;5.88;3.90;;;20.60;99.90;;;;;;4987982;28;20113;-80
2022/05/20 06:17:11;;;;;;;6.78;4.63;;;20.50;99.90;;;;;;4982510;28;20048;-80
2022/05/20 06:19:37;;;;;;;6.22;4.10;;;20.30;99.90;;;;;;4982929;28;20053;-80
2022/05/20 06:22:03;;;;;;;9.02;4.90;;;20.20;99.90;;;;;;4985113;28;20049;-80
2022/05/20 06:24:28;;;;;;;10.13;5.05;;;20.20;99.90;;;;;;4983187;28;20492;-80
2022/05/20 06:26:54;;;;;;;7.82;4.35;;;20.20;99.90;;;;;;4983290;28;20512;-81
2022/05/20 06:29:20;;;;;;;7.07;4.35;;;20.20;99.90;;;;;;4980412;28;20046;-80
2022/05/20 06:31:45;;;;;;;8.52;4.60;;;20.20;99.90;;;;;;4982838;28;20045;-80
2022/05/20 06:34:11;;;;;;;6.07;4.38;;;20.30;99.90;;;;;;4981975;28;20574;-81
2022/05/20 06:42:05;;;;;;;8.73;4.35;;;20.30;99.90;;;;;;4981861;28;20500;-80
2022/05/20 06:44:30;;;;;;;9.38;4.95;;;20.30;99.90;;;;;;4981543;28;20042;-80
2022/05/20 06:46:56;;;;;;;8.32;4.63;;;20.30;99.90;;;;;;5001133;28;20050;-80
2022/05/20 06:49:21;;;;;;;12.95;4.78;;;20.30;99.90;;;;;;4984303;28;20669;-80
2022/05/20 06:51:49;;;;;;;9.05;4.43;;;20.40;99.90;;;;;;4998041;28;20869;-79
2022/05/20 06:54:15;;;;;;;8.75;4.28;;;20.40;99.90;;;;;;4983601;28;20461;-80
2022/05/20 06:56:44;;;;;;;7.55;4.72;;;20.60;99.90;;;;;;4969671;28;20065;-80
2022/05/20 06:59:10;;;;;;;6.50;4.47;;;20.80;99.90;;;;;;4983758;28;20046;-80
2022/05/20 07:01:37;;;;;;;6.05;3.78;;;20.80;99.90;;;;;;4980881;28;20133;-80
2022/05/20 07:04:03;;;;;;;7.53;4.03;;;20.70;99.90;;;;;;4982221;28;20040;-80
2022/05/20 07:06:30;;;;;;;5.57;3.67;;;20.80;99.90;;;;;;4981128;28;20038;-80
2022/05/20 07:08:56;;;;;;;10.18;4.20;;;20.60;99.90;;;;;;4986729;28;20505;-80
2022/05/20 07:11:23;;;;;;;9.30;5.40;;;20.40;99.90;;;;;;4976152;28;20053;-81
2022/05/20 07:13:52;;;;;;;5.80;3.78;;;20.30;99.90;;;;;;4993576;28;20029;-79
2022/05/20 07:16:17;;;;;;;7.13;4.60;;;20.20;99.90;;;;;;4983454;28;20050;-81
2022/05/20 07:18:44;;;;;;;6.97;4.07;;;20.00;99.90;;;;;;4983266;28;20034;-81
2022/05/20 07:21:10;;;;;;;9.40;3.92;;;19.90;99.90;;;;;;5005004;28;20049;-80
2022/05/20 07:23:35;;;;;;;8.30;4.65;;;19.80;99.90;;;;;;4992611;28;20050;-80
2022/05/20 07:26:02;;;;;;;10.93;4.40;;;19.80;99.90;;;;;;4990388;28;20063;-81
2022/05/20 07:28:28;;;;;;;7.10;4.57;;;19.70;99.90;;;;;;5001989;28;20121;-80
2022/05/20 07:30:54;;;;;;;7.45;5.50;;;19.70;99.90;;;;;;4988419;28;20037;-80
2022/05/20 07:33:20;;;;;;;5.88;4.35;;;19.90;99.90;;;;;;5005158;28;20391;-81
2022/05/20 07:35:46;;;;;;;9.52;4.90;;;19.80;99.90;;;;;;4988807;28;20044;-79
2022/05/20 07:38:17;;;;;;;10.20;5.85;;;19.80;99.90;;;;;;4988144;28;20040;-79
2022/05/20 07:40:43;;;;;;;6.75;5.00;;;19.80;99.90;;;;;;5000319;28;20044;-81
2022/05/20 07:43:09;;;;;;;6.78;4.90;;;19.80;99.90;;;;;;4987507;28;20161;-80
2022/05/20 07:45:35;;;;;;;8.77;5.60;;;19.90;99.90;;;;;;4988408;28;20445;-80
2022/05/20 07:48:00;;;;;;;6.20;4.93;;;20.00;99.90;;;;;;4987744;28;20057;-80
2022/05/20 07:50:26;;;;;;;11.48;5.28;;;20.10;99.90;;;;;;4988393;28;20027;-79
2022/05/20 07:55:43;;;;;;;10.77;4.90;;;19.90;99.90;;;;;;4992121;28;20050;-80
2022/05/20 07:58:13;;;;;;;7.53;4.97;;;19.80;99.90;;;;;;4984729;28;20049;-80
2022/05/20 08:00:39;;;;;;;7.22;4.90;;;19.70;99.90;;;;;;4988892;28;20175;-81
2022/05/20 08:03:05;;;;;;;7.47;4.65;;;19.70;99.90;;;;;;4969058;28;20173;-81
2022/05/20 08:05:33;;;;;;;7.85;5.32;;;19.70;99.90;;;;;;4997303;28;20042;-80
2022/05/20 08:08:02;;;;;;;9.70;5.60;;;19.80;99.90;;;;;;4970841;28;20157;-79
2022/05/20 08:10:34;;;;;;;7.13;4.50;;;19.90;99.90;;;;;;4970214;28;20041;-80
2022/05/20 08:13:00;;;;;;;9.90;4.65;;;19.90;99.90;;;;;;4981086;28;20038;-81
2022/05/20 08:15:26;;;;;;;8.00;4.72;;;19.90;99.90;;;;;;4986125;28;20484;-80
2022/05/20 08:17:52;;;;;;;7.43;5.05;;;19.90;99.90;;;;;;4987433;28;20046;-80
2022/05/20 08:20:25;;;;;;;8.88;5.75;;;19.80;99.90;;;;;;4968065;28;20050;-80
2022/05/20 08:22:56;;;;;;;6.78;5.47;;;19.70;99.90;;;;;;4989063;28;20073;-80
2022/05/20 08:25:25;;;;;;;10.60;5.07;;;19.50;99.90;;;;;;4986973;28;20058;-80
2022/05/20 08:27:51;;;;;;;6.90;4.93;;;19.60;99.90;;;;;;4982709;28;20046;-80
2022/05/20 08:30:20;;;;;;;6.15;5.35;;;19.60;99.90;;;;;;5003900;28;20034;-79
2022/05/20 08:32:47;;;;;;;8.60;5.22;;;19.60;99.90;;;;;;4984688;28;20038;-81
2022/05/20 08:35:13;;;;;;;5.90;4.80;;;19.50;99.90;;;;;;4985009;28;20489;-80
2022/05/20 08:37:42;;;;;;;7.03;4.57;;;19.50;99.90;;;;;;4985897;28;20061;-80
2022/05/20 08:40:16;;;;;;;9.00;5.22;;;19.40;99.90;;;;;;4968831;28;20050;-81
2022/05/20 08:42:43;;;;;;;6.88;4.28;;;19.40;99.90;;;;;;4984443;28;20099;-80
2022/05/20 08:45:21;;;;;;;5.35;4.85;;;19.60;99.90;;;;;;4983833;28;20045;-80
2022/05/20 08:47:48;;;;;;;7.05;4.93;;;19.80;99.90;;;;;;4980621;28;20837;-80
2022/05/20 08:50:20;;;;;;;9.23;5.68;;;20.00;99.90;;;;;;4982251;28;20026;-80
2022/05/20 08:52:46;;;;;;;8.35;4.88;;;19.80;99.90;;;;;;4983012;28;20069;-80
2022/05/20 08:55:12;;;;;;;9.00;5.63;;;19.90;99.90;;;;;;4986138;28;20332;-80
2022/05/20 08:57:44;;;;;;;6.93;5.30;;;19.80;99.90;;;;;;4980003;28;20188;-80
2022/05/20 09:00:12;;;;;;;8.70;5.30;;;19.70;99.90;;;;;;4983737;28;20528;-79
2022/05/20 09:02:38;;;;;;;8.75;4.95;;;19.70;99.90;;;;;;4984226;28;20690;-80
2022/05/20 09:05:36;;;;;;;7.63;5.60;;;19.70;99.90;;;;;;5001890;28;20041;-79
2022/05/20 09:08:19;;;;;;;6.30;4.75;;;19.70;99.90;;;;;;4967160;28;20058;-81
2022/05/20 09:10:49;;;;;;;6.57;5.32;;;19.80;99.90;;;;;;4968657;28;20456;-80
2022/05/20 09:15:43;;;;;;;4.80;4.25;;;19.90;99.90;;;;;;4998533;28;20047;-79
2022/05/20 09:16:17;;;;;;;6.20;4.55;;;19.90;99.20;;;;;;4982369;28;20038;-80
2022/05/20 09:18:48;;;;;;;6.60;4.60;;;19.90;99.90;;;;;;4963415;28;20058;-80
2022/05/20 09:21:38;;;;;;;4.32;3.60;;;20.00;99.90;;;;;;4968760;28;20042;-80
2022/05/20 09:24:07;;;;;;;7.13;4.47;;;20.00;99.80;;;;;;4995244;28;20030;-80
2022/05/20 09:27:01;;;;;;;5.95;3.90;;;20.10;97.60;;;;;;4983564;28;20056;-80
2022/05/20 09:29:35;;;;;;;5.72;4.20;;;20.20;99.10;;;;;;4991270;28;20512;-79
2022/05/20 09:32:03;;;;;;;7.45;4.20;;;20.40;99.70;;;;;;4982286;28;20046;-80
2022/05/20 09:34:38;;;;;;;8.75;5.55;;;20.50;98.50;;;;;;4986151;28;20053;-80
2022/05/20 09:37:14;;;;;;;7.32;3.83;;;20.50;98.10;;;;;;4982447;28;20037;-79
2022/05/20 09:39:43;;;;;;;4.82;4.00;;;20.40;97.30;;;;;;4981992;28;20054;-81
2022/05/20 09:42:17;;;;;;;5.53;3.70;;;20.40;97.80;;;;;;4971596;28;20381;-80
2022/05/20 09:44:46;;;;;;;6.50;4.43;;;20.50;97.40;;;;;;4981563;28;20046;-80
2022/05/20 09:47:22;;;;;;;5.18;4.68;;;20.50;97.30;;;;;;5004058;28;20057;-80
2022/05/20 09:50:02;;;;;;;5.60;4.60;;;20.60;97.00;;;;;;4982062;28;20504;-80
2022/05/20 09:52:33;;;;;;;7.70;4.22;;;20.60;97.10;;;;;;4969094;28;20046;-79
2022/05/20 09:55:02;;;;;;;7.93;3.53;;;20.50;97.80;;;;;;4985607;28;20437;-79
2022/05/20 09:57:40;;;;;;;3.90;2.72;;;20.30;94.30;;;;;;4986693;28;20038;-80
2022/05/20 10:00:30;;;;;;;4.70;3.72;;;20.20;94.20;;;;;;4981176;28;20034;-79
2022/05/20 10:02:58;;;;;;;6.15;4.63;;;20.20;96.10;;;;;;5001588;28;20644;-79
2022/05/20 10:05:38;;;;;;;7.80;4.75;;;20.20;97.10;;;;;;4982723;28;20045;-79
2022/05/20 10:08:12;;;;;;;6.10;4.50;;;20.20;96.40;;;;;;4987241;28;20403;-79
2022/05/20 10:11:00;;;;;;;7.93;4.05;;;20.10;96.40;;;;;;4987187;28;20049;-79
2022/05/20 10:13:35;;;;;;;5.97;4.20;;;20.00;96.80;;;;;;4968546;28;20029;-79
2022/05/20 10:16:33;;;;;;;7.05;5.15;;;20.00;95.90;;;;;;4985917;28;20452;-79
2022/05/20 10:19:14;;;;;;;7.10;4.65;;;20.00;96.20;;;;;;4988310;28;20052;-79
2022/05/20 10:22:05;;;;;;;15.57;3.50;;;20.00;96.20;;;;;;4984950;28;20092;-80
2022/05/20 10:25:06;;;;;;;7.45;4.47;;;20.00;95.70;;;;;;4984633;28;20504;-79
2022/05/20 10:27:41;;;;;;;5.45;3.60;;;20.00;95.90;;;;;;4986427;28;20041;-80
2022/05/20 10:33:06;;;;;;;4.80;3.55;;;20.10;95.60;;;;;;5010738;28;20061;-80
2022/05/20 10:36:06;;;;;;;4.93;3.28;;;20.20;95.40;;;;;;5022143;28;20085;-80
2022/05/20 10:38:59;;;;;;;4.65;3.15;;;20.20;93.80;;;;;;4989590;28;20455;-79
2022/05/20 10:42:06;;;;;;;9.18;4.40;;;20.20;91.00;;;;;;4984348;28;20057;-80
2022/05/20 10:50:57;;;;;;;6.25;3.70;;;20.40;93.30;;;;;;4983537;28;20448;-79
2022/05/20 10:54:02;;;;;;;5.55;5.00;;;20.60;93.50;;;;;;4999621;28;20057;-79
2022/05/20 10:56:46;;;;;;;5.85;4.47;;;20.70;93.80;;;;;;4959274;28;20049;-79
2022/05/20 10:59:49;;;;;;;5.03;4.13;;;20.70;94.40;;;;;;4988816;28;20504;-79
2022/05/20 11:02:39;;;;;;;6.15;3.92;;;20.70;93.70;;;;;;4981403;28;20034;-79
2022/05/20 11:05:12;;;;;;;5.57;4.47;;;20.80;94.10;;;;;;4986890;28;20677;-81
2022/05/20 11:07:52;;;;;;;4.45;3.60;;;21.00;93.60;;;;;;4984863;28;20042;-78
2022/05/20 11:10:38;;;;;;;5.43;3.53;;;20.90;91.70;;;;;;4982941;28;20033;-78
2022/05/20 11:13:23;;;;;;;4.93;3.33;;;21.00;92.40;;;;;;4987141;28;20638;-79
2022/05/20 11:16:35;;;;;;;4.80;4.00;;;21.10;90.50;;;;;;4969395;28;20096;-79
2022/05/20 11:19:13;;;;;;;6.70;4.97;;;21.10;91.10;;;;;;4983398;28;20034;-82
2022/05/20 11:21:54;;;;;;;4.72;4.30;;;21.20;91.90;;;;;;4976415;28;20107;-79
2022/05/20 11:25:01;;;;;;;6.97;6.28;;;21.20;91.90;;;;;;4983771;28;20087;-79
2022/05/20 11:28:00;;;;;;;12.60;7.15;;;21.30;92.40;;;;;;4982735;28;20080;-79
2022/05/20 11:30:56;;;;;;;8.40;6.82;;;21.30;95.20;;;;;;4982206;28;20061;-79
2022/05/20 11:33:40;;;;;;;8.13;6.78;;;21.40;94.70;;;;;;4984497;28;20480;-80
2022/05/20 11:36:47;;;;;;;6.40;5.80;;;21.30;94.20;;;;;;4983382;28;20042;-79
2022/05/20 11:39:32;;;;;;;6.18;5.25;;;21.40;92.40;;;;;;4979261;28;20046;-78
2022/05/20 11:42:25;;;;;;;6.20;4.43;;;21.30;92.80;;;;;;4979315;28;20038;-78
2022/05/20 11:45:10;;;;;;;6.93;5.35;;;21.30;92.50;;;;;;4981079;28;20649;-79
2022/05/20 11:47:51;;;;;;;4.15;3.40;;;21.30;92.60;;;;;;4983216;28;20050;-79
2022/05/20 11:50:19;;;;;;;3.80;2.85;;;21.30;90.70;;;;;;4987573;28;20104;-79
2022/05/20 11:52:48;;;;;;;4.13;2.53;;;21.10;88.90;;;;;;4981865;28;20100;-79
2022/05/20 11:55:47;;;;;;;3.50;1.90;;;21.00;82.80;;;;;;4985558;28;20045;-79
2022/05/20 11:58:21;;;;;;;6.35;2.35;;;20.90;85.80;;;;;;4987973;28;20279;-78
2022/05/20 12:00:48;;;;;;;9.23;2.60;;;20.90;84.80;;;;;;4984325;28;20046;-78
2022/05/20 12:03:18;;;;;;;6.95;2.85;;;20.90;82.90;;;;;;4984045;28;20534;-79
2022/05/20 12:05:47;;;;;;;3.42;1.45;;;20.90;84.80;;;;;;4971521;28;20034;-79
2022/05/20 12:08:37;;;;;;;4.05;1.05;;;20.80;81.10;;;;;;4984584;28;20042;-78
2022/05/20 12:11:18;;;;;;;1.38;1.00;;;20.80;81.40;;;;;;4998586;28;20550;-81
2022/05/20 12:14:04;;;;;;;5.65;1.70;;;20.80;79.40;;;;;;4976777;28;20049;-78
2022/05/20 12:16:32;;;;;;;5.35;2.92;;;20.80;81.10;;;;;;4970167;28;20037;-80
2022/05/20 12:24:50;;;;;;;4.70;2.33;;;21.00;87.60;;;;;;4976611;28;20069;-80
2022/05/20 12:27:24;;;;;;;4.88;2.13;;;21.20;86.90;;;;;;4975265;28;20041;-81
2022/05/20 12:29:59;;;;;;;2.65;1.83;;;21.10;84.00;;;;;;4982207;28;20069;-81
2022/05/20 12:32:29;;;;;;;2.40;1.70;;;21.10;86.30;;;;;;4987395;28;20048;-84
2022/05/20 12:35:12;;;;;;;2.08;1.38;;;21.00;84.90;;;;;;4974110;28;20040;-83
2022/05/20 12:37:44;;;;;;;3.40;2.03;;;21.10;85.00;;;;;;4985817;28;20708;-80
2022/05/20 12:40:28;;;;;;;2.35;2.00;;;21.10;85.40;;;;;;4985350;28;20087;-81
2022/05/20 12:43:03;;;;;;;3.08;1.90;;;21.10;85.50;;;;;;4986252;28;20046;-82
2022/05/20 12:45:37;;;;;;;4.32;2.05;;;21.10;84.20;;;;;;4980035;28;20540;-81
2022/05/20 12:48:03;;;;;;;2.53;2.15;;;21.00;84.40;;;;;;4982678;28;20042;-80
2022/05/20 12:50:31;;;;;;;5.57;3.10;;;20.90;85.80;;;;;;4999004;28;20048;-81
2022/05/20 12:53:05;;;;;;;6.95;3.50;;;20.80;85.70;;;;;;4997379;28;20661;-81
2022/05/20 12:55:45;;;;;;;5.38;2.67;;;20.70;87.40;;;;;;4998671;28;20074;-82
2022/05/20 12:58:15;;;;;;;3.70;2.78;;;20.60;87.40;;;;;;4989162;28;21010;-82
2022/05/20 13:00:46;;;;;;;3.92;3.40;;;20.60;89.40;;;;;;4989136;28;20045;-84
2022/05/20 13:03:15;;;;;;;3.95;3.30;;;20.60;90.40;;;;;;5004797;28;20045;-81
2022/05/20 13:05:52;;;;;;;5.57;3.47;;;20.50;90.90;;;;;;4968284;28;20052;-83
2022/05/20 13:08:31;;;;;;;7.22;4.38;;;20.40;90.80;;;;;;4998045;28;20058;-82
2022/05/20 13:11:21;;;;;;;5.97;3.45;;;20.30;91.50;;;;;;4969653;28;20042;-82
2022/05/20 13:13:51;;;;;;;7.90;3.90;;;20.30;92.60;;;;;;4980454;28;20053;-82
2022/05/20 13:16:21;;;;;;;9.57;4.22;;;20.30;93.10;;;;;;4988570;28;20045;-81
2022/05/20 13:19:02;;;;;;;6.10;4.35;;;20.10;92.90;;;;;;4983328;28;20081;-80
2022/05/20 13:21:30;;;;;;;6.57;3.75;;;20.00;91.70;;;;;;4980170;28;20054;-80
2022/05/20 13:23:56;;;;;;;6.18;4.78;;;19.90;92.00;;;;;;4999947;28;20062;-82
2022/05/20 13:26:27;;;;;;;8.23;5.57;;;19.80;92.50;;;;;;4980299;28;20053;-80
2022/05/20 13:29:06;;;;;;;6.07;5.47;;;19.60;92.40;;;;;;4983906;28;20587;-81
2022/05/20 13:31:32;;;;;;;6.57;5.97;;;19.50;93.00;;;;;;5000955;28;20045;-82
2022/05/20 13:33:58;;;;;;;6.93;6.22;;;19.40;93.40;;;;;;4970126;28;20049;-81
2022/05/20 13:36:23;;;;;;;8.93;7.82;;;19.40;93.80;;;;;;4980744;28;20049;-82
2022/05/20 13:38:55;;;;;;;14.52;8.23;;;19.30;94.40;;;;;;4994023;28;20030;-79
2022/05/20 13:41:28;;;;;;;11.73;9.95;;;19.20;95.20;;;;;;4977493;28;20043;-80
2022/05/20 13:43:55;;;;;;;11.13;10.20;;;19.10;95.90;;;;;;4996728;28;20045;-82
2022/05/20 13:49:13;;;;;;;15.38;12.20;;;19.00;97.70;;;;;;4982525;28;20089;-80